sensor_id;sensor_type;location;lat;lon;timestamp;pressure;altitude;pressure_sealevel;temperature;humidity
75188;BME280;63762;51.334;22.108;2024-01-10T00:04:06;103556.12;;;-10.67;66.83
75188;BME280;63762;51.334;22.108;2024-01-10T00:14:13;103564.06;;;-11.29;68.28
75188;BME280;63762;51.334;22.108;2024-01-10T00:24:20;103551.94;;;-10.97;67.49
75188;BME280;63762;51.334;22.108;2024-01-10T00:34:27;103545.53;;;-10.87;68.18
75188;BME280;63762;51.334;22.108;2024-01-10T00:44:35;103552.69;;;-10.99;68.12
75188;BME280;63762;51.334;22.108;2024-01-10T00:54:42;103545.48;;;-11.21;68.91
75188;BME280;63762;51.334;22.108;2024-01-10T01:04:49;103531.49;;;-11.07;67.99
75188;BME280;63762;51.334;22.108;2024-01-10T01:14:56;103528.45;;;-10.82;66.73
75188;BME280;63762;51.334;22.108;2024-01-10T01:25:04;103531.82;;;-11.01;67.10
75188;BME280;63762;51.334;22.108;2024-01-10T01:35:10;103502.89;;;-10.91;67.22
75188;BME280;63762;51.334;22.108;2024-01-10T01:45:17;103504.98;;;-10.84;67.37
75188;BME280;63762;51.334;22.108;2024-01-10T01:55:25;103498.83;;;-10.86;67.59
75188;BME280;63762;51.334;22.108;2024-01-10T02:05:32;103488.04;;;-10.93;68.01
75188;BME280;63762;51.334;22.108;2024-01-10T02:15:40;103471.51;;;-10.78;67.63
75188;BME280;63762;51.334;22.108;2024-01-10T02:25:46;103467.42;;;-10.90;68.26
75188;BME280;63762;51.334;22.108;2024-01-10T02:35:53;103465.76;;;-10.88;68.11
75188;BME280;63762;51.334;22.108;2024-01-10T02:46:00;103456.27;;;-10.88;69.08
75188;BME280;63762;51.334;22.108;2024-01-10T02:56:08;103443.38;;;-10.69;68.20
75188;BME280;63762;51.334;22.108;2024-01-10T03:06:15;103462.35;;;-10.70;67.57
75188;BME280;63762;51.334;22.108;2024-01-10T03:16:22;103441.30;;;-10.76;66.96
75188;BME280;63762;51.334;22.108;2024-01-10T03:26:30;103449.88;;;-10.77;66.93
75188;BME280;63762;51.334;22.108;2024-01-10T03:36:36;103436.94;;;-10.93;67.35
75188;BME280;63762;51.334;22.108;2024-01-10T03:46:43;103432.96;;;-10.86;67.25
75188;BME280;63762;51.334;22.108;2024-01-10T03:56:51;103435.00;;;-10.97;67.48
75188;BME280;63762;51.334;22.108;2024-01-10T04:06:58;103423.79;;;-10.96;67.29
75188;BME280;63762;51.334;22.108;2024-01-10T04:17:05;103417.25;;;-11.05;68.12
75188;BME280;63762;51.334;22.108;2024-01-10T04:27:12;103414.22;;;-10.97;67.96
75188;BME280;63762;51.334;22.108;2024-01-10T04:37:19;103409.16;;;-11.11;68.46
75188;BME280;63762;51.334;22.108;2024-01-10T04:47:26;103388.70;;;-10.88;67.73
75188;BME280;63762;51.334;22.108;2024-01-10T04:57:34;103401.17;;;-10.81;66.93
75188;BME280;63762;51.334;22.108;2024-01-10T05:07:41;103377.26;;;-10.74;67.08
75188;BME280;63762;51.334;22.108;2024-01-10T05:17:48;103390.32;;;-10.90;67.53
75188;BME280;63762;51.334;22.108;2024-01-10T05:27:55;103376.80;;;-10.83;67.60
75188;BME280;63762;51.334;22.108;2024-01-10T05:38:02;103381.99;;;-10.83;68.32
75188;BME280;63762;51.334;22.108;2024-01-10T05:48:09;103366.55;;;-10.80;67.83
75188;BME280;63762;51.334;22.108;2024-01-10T05:58:17;103361.66;;;-10.74;67.88
75188;BME280;63762;51.334;22.108;2024-01-10T06:08:24;103366.39;;;-10.65;67.90
75188;BME280;63762;51.334;22.108;2024-01-10T06:18:31;103378.53;;;-10.66;68.10
75188;BME280;63762;51.334;22.108;2024-01-10T06:28:38;103376.93;;;-10.45;68.37
75188;BME280;63762;51.334;22.108;2024-01-10T06:38:45;103367.84;;;-10.18;67.25
75188;BME280;63762;51.334;22.108;2024-01-10T06:51:56;103368.52;;;-10.39;67.09
75188;BME280;63762;51.334;22.108;2024-01-10T07:02:03;103363.93;;;-10.45;67.30
75188;BME280;63762;51.334;22.108;2024-01-10T07:12:10;103383.62;;;-10.32;67.09
75188;BME280;63762;51.334;22.108;2024-01-10T07:22:17;103381.64;;;-10.19;67.13
75188;BME280;63762;51.334;22.108;2024-01-10T07:32:25;103380.51;;;-9.87;66.82
75188;BME280;63762;51.334;22.108;2024-01-10T07:42:35;103396.13;;;-9.68;66.58
75188;BME280;63762;51.334;22.108;2024-01-10T07:52:39;103389.73;;;-9.56;65.87
75188;BME280;63762;51.334;22.108;2024-01-10T08:02:46;103379.63;;;-9.29;65.54
75188;BME280;63762;51.334;22.108;2024-01-10T08:12:53;103394.91;;;-8.97;65.69
75188;BME280;63762;51.334;22.108;2024-01-10T08:23:00;103391.66;;;-8.49;64.27
75188;BME280;63762;51.334;22.108;2024-01-10T08:33:08;103402.33;;;-7.99;64.06
75188;BME280;63762;51.334;22.108;2024-01-10T08:43:15;103418.93;;;-7.51;62.36
75188;BME280;63762;51.334;22.108;2024-01-10T08:53:22;103402.67;;;-7.19;60.70
75188;BME280;63762;51.334;22.108;2024-01-10T09:03:29;103392.51;;;-6.86;59.27
75188;BME280;63762;51.334;22.108;2024-01-10T09:13:36;103387.95;;;-6.65;58.89
75188;BME280;63762;51.334;22.108;2024-01-10T09:23:43;103390.92;;;-6.55;57.67
75188;BME280;63762;51.334;22.108;2024-01-10T09:33:51;103399.07;;;-6.46;57.79
75188;BME280;63762;51.334;22.108;2024-01-10T09:43:58;103374.20;;;-6.32;58.06
75188;BME280;63762;51.334;22.108;2024-01-10T09:54:05;103351.16;;;-6.15;57.70
75188;BME280;63762;51.334;22.108;2024-01-10T10:04:12;103367.54;;;-5.93;57.77
75188;BME280;63762;51.334;22.108;2024-01-10T10:14:19;103346.16;;;-5.77;57.50
75188;BME280;63762;51.334;22.108;2024-01-10T10:24:26;103345.40;;;-5.42;57.13
75188;BME280;63762;51.334;22.108;2024-01-10T10:34:33;103326.93;;;-5.14;56.89
75188;BME280;63762;51.334;22.108;2024-01-10T10:44:43;103331.55;;;-5.04;56.56
75188;BME280;63762;51.334;22.108;2024-01-10T10:54:48;103311.85;;;-4.87;56.72
75188;BME280;63762;51.334;22.108;2024-01-10T11:04:55;103298.24;;;-4.71;56.49
75188;BME280;63762;51.334;22.108;2024-01-10T11:15:19;103307.03;;;-4.31;55.67
75188;BME280;63762;51.334;22.108;2024-01-10T11:25:18;103299.27;;;-3.85;54.63
75188;BME280;63762;51.334;22.108;2024-01-10T11:35:20;103286.65;;;-3.58;54.23
75188;BME280;63762;51.334;22.108;2024-01-10T11:55:49;103247.12;;;-3.12;53.04
75188;BME280;63762;51.334;22.108;2024-01-10T12:05:53;103231.68;;;-2.91;52.20
75188;BME280;63762;51.334;22.108;2024-01-10T12:15:54;103233.16;;;-2.49;50.74
75188;BME280;63762;51.334;22.108;2024-01-10T12:25:57;103206.94;;;-2.40;49.83
75188;BME280;63762;51.334;22.108;2024-01-10T12:46:13;103178.92;;;-2.33;49.98
75188;BME280;63762;51.334;22.108;2024-01-10T12:56:14;103193.69;;;-2.44;50.16
75188;BME280;63762;51.334;22.108;2024-01-10T13:06:21;103179.27;;;-2.01;50.82
75188;BME280;63762;51.334;22.108;2024-01-10T13:16:28;103169.45;;;-2.16;50.22
75188;BME280;63762;51.334;22.108;2024-01-10T13:26:35;103172.84;;;-2.26;50.52
75188;BME280;63762;51.334;22.108;2024-01-10T13:36:42;103175.46;;;-2.27;51.48
75188;BME280;63762;51.334;22.108;2024-01-10T13:46:49;103183.38;;;-2.27;51.22
75188;BME280;63762;51.334;22.108;2024-01-10T13:56:56;103173.77;;;-2.22;51.10
75188;BME280;63762;51.334;22.108;2024-01-10T14:07:04;103185.18;;;-2.22;51.04
75188;BME280;63762;51.334;22.108;2024-01-10T14:17:11;103179.06;;;-2.21;49.84
75188;BME280;63762;51.334;22.108;2024-01-10T14:27:18;103162.78;;;-2.57;50.56
75188;BME280;63762;51.334;22.108;2024-01-10T14:37:25;103153.81;;;-2.73;50.44
75188;BME280;63762;51.334;22.108;2024-01-10T14:47:32;103151.89;;;-2.84;50.95
75188;BME280;63762;51.334;22.108;2024-01-10T14:57:39;103138.77;;;-2.81;51.69
75188;BME280;63762;51.334;22.108;2024-01-10T15:07:46;103128.20;;;-2.84;50.97
75188;BME280;63762;51.334;22.108;2024-01-10T15:17:53;103121.79;;;-3.03;51.08
75188;BME280;63762;51.334;22.108;2024-01-10T15:28:01;103125.78;;;-3.30;50.72
75188;BME280;63762;51.334;22.108;2024-01-10T15:38:08;103127.30;;;-3.44;51.27
75188;BME280;63762;51.334;22.108;2024-01-10T15:48:15;103114.91;;;-3.51;51.12
75188;BME280;63762;51.334;22.108;2024-01-10T15:58:22;103078.81;;;-3.61;51.19
75188;BME280;63762;51.334;22.108;2024-01-10T16:08:29;103067.47;;;-3.57;51.10
75188;BME280;63762;51.334;22.108;2024-01-10T16:18:37;103048.00;;;-3.70;51.73
75188;BME280;63762;51.334;22.108;2024-01-10T16:28:43;103046.22;;;-3.72;52.17
75188;BME280;63762;51.334;22.108;2024-01-10T16:38:51;103046.12;;;-3.78;52.57
75188;BME280;63762;51.334;22.108;2024-01-10T16:48:58;103040.63;;;-3.92;53.24
75188;BME280;63762;51.334;22.108;2024-01-10T16:59:05;103042.19;;;-4.04;53.89
75188;BME280;63762;51.334;22.108;2024-01-10T17:09:12;103035.09;;;-4.08;53.55
75188;BME280;63762;51.334;22.108;2024-01-10T17:19:19;103038.19;;;-4.33;54.31
75188;BME280;63762;51.334;22.108;2024-01-10T17:29:26;103032.91;;;-4.33;54.27
75188;BME280;63762;51.334;22.108;2024-01-10T17:39:34;103004.80;;;-4.37;55.29
75188;BME280;63762;51.334;22.108;2024-01-10T17:49:41;102990.78;;;-4.39;55.62
75188;BME280;63762;51.334;22.108;2024-01-10T17:59:48;102988.13;;;-4.41;55.42
75188;BME280;63762;51.334;22.108;2024-01-10T18:09:55;102982.19;;;-4.79;56.51
75188;BME280;63762;51.334;22.108;2024-01-10T18:20:02;102981.16;;;-4.87;56.61
75188;BME280;63762;51.334;22.108;2024-01-10T18:30:10;102963.43;;;-4.98;56.78
75188;BME280;63762;51.334;22.108;2024-01-10T18:40:17;102975.38;;;-5.14;56.91
75188;BME280;63762;51.334;22.108;2024-01-10T18:50:24;102974.20;;;-5.29;57.46
75188;BME280;63762;51.334;22.108;2024-01-10T19:00:31;102972.07;;;-5.47;57.86
75188;BME280;63762;51.334;22.108;2024-01-10T19:10:38;102965.97;;;-5.46;58.02
75188;BME280;63762;51.334;22.108;2024-01-10T19:20:45;102957.10;;;-5.51;57.90
75188;BME280;63762;51.334;22.108;2024-01-10T19:30:52;102957.79;;;-5.59;57.94
75188;BME280;63762;51.334;22.108;2024-01-10T19:41:00;102955.14;;;-5.61;57.85
75188;BME280;63762;51.334;22.108;2024-01-10T19:51:07;102939.28;;;-5.67;57.64
75188;BME280;63762;51.334;22.108;2024-01-10T20:01:14;102924.20;;;-5.77;57.94
75188;BME280;63762;51.334;22.108;2024-01-10T20:11:21;102904.00;;;-5.84;57.99
75188;BME280;63762;51.334;22.108;2024-01-10T20:21:28;102912.66;;;-5.88;57.83
75188;BME280;63762;51.334;22.108;2024-01-10T20:31:35;102908.48;;;-5.77;57.02
75188;BME280;63762;51.334;22.108;2024-01-10T20:41:43;102897.90;;;-5.83;57.09
75188;BME280;63762;51.334;22.108;2024-01-10T20:51:49;102897.28;;;-5.70;56.56
75188;BME280;63762;51.334;22.108;2024-01-10T21:01:57;102886.03;;;-5.66;56.19
75188;BME280;63762;51.334;22.108;2024-01-10T21:12:05;102886.91;;;-5.64;55.98
75188;BME280;63762;51.334;22.108;2024-01-10T21:22:11;102868.54;;;-5.65;56.25
75188;BME280;63762;51.334;22.108;2024-01-10T21:32:18;102870.27;;;-5.67;56.35
75188;BME280;63762;51.334;22.108;2024-01-10T21:42:26;102851.83;;;-5.72;54.87
75188;BME280;63762;51.334;22.108;2024-01-10T21:52:32;102837.06;;;-5.67;53.34
75188;BME280;63762;51.334;22.108;2024-01-10T22:02:40;102821.48;;;-5.59;52.75
75188;BME280;63762;51.334;22.108;2024-01-10T22:12:47;102809.33;;;-5.56;52.43
75188;BME280;63762;51.334;22.108;2024-01-10T22:22:54;102783.95;;;-5.57;52.94
75188;BME280;63762;51.334;22.108;2024-01-10T22:33:01;102763.04;;;-5.54;53.02
75188;BME280;63762;51.334;22.108;2024-01-10T22:43:08;102747.05;;;-5.69;53.39
75188;BME280;63762;51.334;22.108;2024-01-10T22:53:15;102741.63;;;-5.78;53.34
75188;BME280;63762;51.334;22.108;2024-01-10T23:03:22;102715.16;;;-5.93;53.63
75188;BME280;63762;51.334;22.108;2024-01-10T23:13:30;102716.19;;;-5.86;53.31
75188;BME280;63762;51.334;22.108;2024-01-10T23:23:37;102694.09;;;-5.99;54.55
75188;BME280;63762;51.334;22.108;2024-01-10T23:33:44;102673.30;;;-5.90;54.39
75188;BME280;63762;51.334;22.108;2024-01-10T23:43:51;102647.11;;;-5.90;54.41
75188;BME280;63762;51.334;22.108;2024-01-10T23:53:58;102640.28;;;-5.82;54.87
